createdAt,value
2023-02-16T00:01:52.783Z,23.37
2023-02-16T00:04:37.835Z,22.85
2023-02-16T00:07:04.751Z,19.85
2023-02-16T00:09:31.547Z,20.40
2023-02-16T00:12:17.636Z,20.63
2023-02-16T00:14:44.679Z,21.20
2023-02-16T00:17:12.122Z,21.10
2023-02-16T00:19:40.972Z,21.27
2023-02-16T00:22:10.382Z,20.02
2023-02-16T00:24:39.899Z,21.85
2023-02-16T00:27:15.733Z,20.27
2023-02-16T00:29:45.837Z,20.10
2023-02-16T00:32:13.795Z,21.20
2023-02-16T00:34:41.963Z,20.48
2023-02-16T00:37:11.595Z,20.13
2023-02-16T00:39:39.816Z,20.45
2023-02-16T00:42:17.605Z,18.92
2023-02-16T00:44:48.447Z,20.48
2023-02-16T00:47:32.826Z,21.33
2023-02-16T00:49:59.973Z,20.73
2023-02-16T00:52:29.884Z,21.70
2023-02-16T00:54:59.681Z,22.20
2023-02-16T00:57:30.927Z,24.10
2023-02-16T01:00:06.368Z,24.08
2023-02-16T01:02:33.597Z,24.63
2023-02-16T01:05:00.405Z,25.73
2023-02-16T01:07:49.330Z,24.50
2023-02-16T01:10:37.661Z,23.45
2023-02-16T01:13:05.534Z,24.35
2023-02-16T01:15:34.338Z,25.25
2023-02-16T01:18:01.458Z,25.88
2023-02-16T01:20:29.496Z,23.55
2023-02-16T01:22:56.991Z,24.10
2023-02-16T01:25:24.311Z,22.75
2023-02-16T01:27:53.700Z,24.55
2023-02-16T01:30:22.863Z,24.58
2023-02-16T01:32:53.360Z,26.08
2023-02-16T01:35:38.997Z,26.50
2023-02-16T01:38:06.362Z,25.73
2023-02-16T01:40:33.050Z,23.95
2023-02-16T01:43:24.462Z,23.65
2023-02-16T01:48:30.560Z,21.02
2023-02-16T01:51:06.935Z,19.88
2023-02-16T01:53:43.272Z,20.88
2023-02-16T01:56:32.630Z,23.10
2023-02-16T01:59:33.167Z,23.70
2023-02-16T02:02:11.866Z,19.65
2023-02-16T02:05:11.201Z,20.10
2023-02-16T02:07:52.704Z,19.13
2023-02-16T02:10:28.170Z,18.02
2023-02-16T02:13:04.163Z,19.83
2023-02-16T02:15:32.743Z,18.27
2023-02-16T02:18:00.050Z,19.13
2023-02-16T02:21:11.063Z,16.98
2023-02-16T02:24:03.380Z,16.00
2023-02-16T02:26:52.881Z,19.25
2023-02-16T02:29:46.871Z,19.27
2023-02-16T02:32:33.635Z,21.50
2023-02-16T02:35:19.543Z,19.60
2023-02-16T02:38:08.598Z,20.08
2023-02-16T02:40:55.754Z,17.05
2023-02-16T02:43:33.125Z,17.20
2023-02-16T02:46:07.697Z,18.90
2023-02-16T02:48:35.753Z,18.38
2023-02-16T02:51:29.610Z,16.77
2023-02-16T02:54:34.720Z,16.63
2023-02-16T02:57:37.464Z,16.73
2023-02-16T03:00:36.671Z,17.60
2023-02-16T03:03:12.587Z,15.88
2023-02-16T03:05:44.120Z,15.75
2023-02-16T03:08:14.462Z,15.80
2023-02-16T03:11:09.471Z,16.15
2023-02-16T03:13:45.436Z,14.52
2023-02-16T03:16:25.824Z,16.35
2023-02-16T03:19:12.697Z,16.30
2023-02-16T03:21:59.418Z,17.80
2023-02-16T03:24:51.436Z,17.02
2023-02-16T03:27:42.859Z,17.95
2023-02-16T03:32:39.675Z,17.33
2023-02-16T03:35:07.721Z,17.23
2023-02-16T03:37:35.171Z,19.52
2023-02-16T03:40:20.526Z,19.27
2023-02-16T03:42:51.721Z,19.05
2023-02-16T03:45:20.765Z,18.95
2023-02-16T03:47:47.660Z,18.48
2023-02-16T03:50:14.985Z,17.42
2023-02-16T03:52:42.018Z,18.45
2023-02-16T03:55:09.865Z,18.85
2023-02-16T03:57:36.786Z,20.30
2023-02-16T04:00:04.797Z,20.33
2023-02-16T04:02:39.861Z,19.95
2023-02-16T04:05:07.305Z,21.60
2023-02-16T04:07:34.074Z,22.25
2023-02-16T04:10:01.028Z,21.35
2023-02-16T04:12:36.741Z,21.33
2023-02-16T04:15:13.662Z,23.63
2023-02-16T04:17:40.997Z,22.95
2023-02-16T04:20:10.451Z,22.33
2023-02-16T04:22:37.750Z,22.67
2023-02-16T04:25:04.792Z,23.85
2023-02-16T04:27:31.927Z,24.42
2023-02-16T04:29:58.747Z,26.02
2023-02-16T04:32:26.014Z,25.70
2023-02-16T04:34:52.827Z,22.52
2023-02-16T04:37:19.813Z,21.70
2023-02-16T04:39:47.029Z,20.27
2023-02-16T04:42:13.999Z,23.15
2023-02-16T04:44:40.809Z,22.70
2023-02-16T04:47:07.645Z,23.17
2023-02-16T04:49:34.524Z,34.10
2023-02-16T04:52:03.874Z,27.83
2023-02-16T04:54:32.251Z,25.83
2023-02-16T04:57:00.077Z,23.40
2023-02-16T04:59:27.509Z,23.40
2023-02-16T05:01:54.465Z,23.15
2023-02-16T05:04:21.586Z,25.88
2023-02-16T05:06:48.339Z,24.77
2023-02-16T05:09:15.525Z,22.13
2023-02-16T05:12:01.041Z,22.80
2023-02-16T05:14:42.178Z,42.40
2023-02-16T05:17:31.550Z,28.02
2023-02-16T05:20:00.909Z,24.80
2023-02-16T05:22:34.578Z,22.02
2023-02-16T05:25:02.120Z,24.00
2023-02-16T05:27:30.575Z,23.75
2023-02-16T05:29:58.675Z,23.65
2023-02-16T05:32:25.986Z,26.73
2023-02-16T05:34:53.190Z,27.17
2023-02-16T05:37:20.313Z,27.85
2023-02-16T05:39:47.478Z,26.40
2023-02-16T05:42:14.349Z,24.58
2023-02-16T05:44:41.368Z,25.63
2023-02-16T05:47:08.526Z,24.50
2023-02-16T05:49:35.530Z,27.40
2023-02-16T05:52:02.705Z,29.58
2023-02-16T05:54:29.889Z,31.75
2023-02-16T05:56:56.649Z,34.85
2023-02-16T05:59:23.640Z,41.75
2023-02-16T06:01:52.263Z,40.28
2023-02-16T06:04:21.138Z,34.65
2023-02-16T06:06:48.687Z,35.72
2023-02-16T06:09:15.830Z,32.03
2023-02-16T06:11:43.104Z,30.10
2023-02-16T06:14:14.909Z,31.05
2023-02-16T06:16:44.586Z,29.02
2023-02-16T06:19:12.020Z,27.20
2023-02-16T06:21:40.607Z,27.98
2023-02-16T06:24:09.461Z,28.20
2023-02-16T06:26:37.188Z,27.85
2023-02-16T06:29:05.002Z,29.55
2023-02-16T06:31:36.237Z,31.35
2023-02-16T06:34:04.702Z,32.05
2023-02-16T06:36:32.175Z,33.10
2023-02-16T06:38:59.673Z,36.95
2023-02-16T06:41:34.303Z,36.72
2023-02-16T06:44:03.933Z,37.53
2023-02-16T06:46:30.910Z,40.75
2023-02-16T06:48:57.944Z,43.08
2023-02-16T06:51:25.417Z,43.05
2023-02-16T06:53:52.612Z,54.92
2023-02-16T06:56:19.392Z,65.93
2023-02-16T06:58:46.433Z,66.60
2023-02-16T07:01:13.398Z,60.97
2023-02-16T07:03:40.453Z,60.70
2023-02-16T07:06:07.454Z,58.75
2023-02-16T07:08:35.750Z,59.70
2023-02-16T07:11:03.645Z,67.32
2023-02-16T07:13:30.774Z,65.55
2023-02-16T07:15:58.056Z,58.53
2023-02-16T07:18:25.047Z,51.38
2023-02-16T07:20:51.816Z,52.60
2023-02-16T07:23:18.800Z,56.13
2023-02-16T07:25:45.762Z,57.05
2023-02-16T07:28:13.369Z,56.45
2023-02-16T07:30:40.758Z,59.42
2023-02-16T07:33:08.159Z,71.22
2023-02-16T07:35:36.294Z,83.38
2023-02-16T07:38:05.189Z,74.57
2023-02-16T07:40:32.490Z,84.82
2023-02-16T07:43:01.544Z,60.05
2023-02-16T07:45:30.583Z,56.90
2023-02-16T07:47:57.994Z,37.35
2023-02-16T07:50:25.215Z,28.75
2023-02-16T07:52:52.385Z,31.98
2023-02-16T07:55:19.384Z,32.67
2023-02-16T07:57:49.493Z,33.25
2023-02-16T08:00:17.021Z,32.83
2023-02-16T08:02:43.926Z,31.52
2023-02-16T08:05:11.000Z,27.58
2023-02-16T08:07:37.937Z,24.48
2023-02-16T08:10:06.955Z,30.55
2023-02-16T08:12:34.057Z,27.42
2023-02-16T08:15:01.647Z,31.52
2023-02-16T08:17:28.458Z,28.52
2023-02-16T08:19:55.400Z,25.48
2023-02-16T08:22:22.388Z,26.52
2023-02-16T08:24:49.618Z,28.35
2023-02-16T08:27:16.460Z,27.50
2023-02-16T08:29:43.482Z,22.30
2023-02-16T08:32:14.583Z,22.95
2023-02-16T08:34:43.386Z,25.88
2023-02-16T08:37:13.080Z,23.38
2023-02-16T08:39:40.632Z,25.92
2023-02-16T08:42:08.449Z,22.27
2023-02-16T08:44:35.567Z,22.55
2023-02-16T08:47:02.748Z,24.38
2023-02-16T08:49:30.087Z,23.90
2023-02-16T08:51:58.788Z,23.77
2023-02-16T08:54:30.342Z,23.35
2023-02-16T08:57:00.197Z,27.10
2023-02-16T08:59:28.881Z,25.35
2023-02-16T09:01:58.267Z,26.27
2023-02-16T09:04:27.614Z,25.73
2023-02-16T09:06:56.207Z,27.52
2023-02-16T09:09:23.897Z,34.80
2023-02-16T09:11:50.867Z,29.67
2023-02-16T09:14:19.312Z,27.90
2023-02-16T09:16:46.569Z,32.53
2023-02-16T09:19:16.121Z,30.17
2023-02-16T09:21:43.603Z,28.38
2023-02-16T09:24:11.664Z,28.52
2023-02-16T09:26:42.894Z,28.50
2023-02-16T09:29:14.152Z,28.27
2023-02-16T09:34:19.027Z,28.17
2023-02-16T09:36:47.439Z,28.10
2023-02-16T09:39:14.873Z,28.77
2023-02-16T09:41:54.214Z,27.00
2023-02-16T09:44:26.857Z,28.10
2023-02-16T09:46:57.474Z,25.90
2023-02-16T09:49:25.198Z,27.67
2023-02-16T09:52:20.052Z,27.55
2023-02-16T09:54:52.271Z,24.52
2023-02-16T09:57:41.925Z,22.55
2023-02-16T10:00:26.382Z,28.75
2023-02-16T10:03:28.998Z,28.73
2023-02-16T10:06:13.848Z,27.20
2023-02-16T10:08:43.670Z,24.23
2023-02-16T10:11:33.635Z,21.08
2023-02-16T10:14:08.100Z,20.17
2023-02-16T10:16:42.944Z,19.10
2023-02-16T10:19:23.791Z,18.58
2023-02-16T10:21:56.632Z,17.63
2023-02-16T10:24:27.975Z,18.88
2023-02-16T10:27:02.691Z,19.35
2023-02-16T10:29:29.854Z,18.02
2023-02-16T10:32:18.179Z,15.48
2023-02-16T10:34:51.318Z,14.15
2023-02-16T10:37:40.204Z,15.18
2023-02-16T10:40:29.640Z,15.20
2023-02-16T10:43:17.024Z,15.30
2023-02-16T10:45:52.330Z,14.85
2023-02-16T10:48:22.137Z,14.55
2023-02-16T10:51:02.622Z,13.27
2023-02-16T10:53:39.699Z,13.48
2023-02-16T10:56:52.733Z,9.98
2023-02-16T10:59:26.528Z,11.60
2023-02-16T11:01:59.315Z,11.10
2023-02-16T11:04:42.234Z,12.77
2023-02-16T11:07:11.102Z,14.48
2023-02-16T11:09:41.497Z,10.05
2023-02-16T11:12:27.660Z,8.32
2023-02-16T11:15:16.630Z,6.68
2023-02-16T11:17:51.846Z,6.00
2023-02-16T11:20:33.746Z,10.45
2023-02-16T11:23:48.493Z,8.00
2023-02-16T11:26:24.727Z,6.32
2023-02-16T11:28:53.342Z,7.88
2023-02-16T11:31:36.729Z,10.88
2023-02-16T11:34:08.660Z,6.03
2023-02-16T11:36:43.283Z,7.68
2023-02-16T11:39:24.874Z,8.82
2023-02-16T11:41:55.850Z,6.65
2023-02-16T11:44:36.612Z,7.25
2023-02-16T11:47:08.931Z,8.55
2023-02-16T11:49:40.005Z,6.65
2023-02-16T11:52:23.279Z,7.75
2023-02-16T11:54:52.000Z,6.07
2023-02-16T11:57:28.663Z,7.65
2023-02-16T11:59:57.678Z,5.65
2023-02-16T12:02:40.552Z,4.05
2023-02-16T12:05:27.976Z,5.07
2023-02-16T12:08:39.787Z,4.80
2023-02-16T12:11:09.608Z,4.55
2023-02-16T12:13:58.157Z,5.25
2023-02-16T12:17:03.446Z,8.30
2023-02-16T12:19:41.311Z,5.10
2023-02-16T12:22:14.352Z,5.45
2023-02-16T12:24:58.204Z,5.22
2023-02-16T12:27:30.542Z,5.35
2023-02-16T12:30:34.143Z,6.50
2023-02-16T12:33:17.191Z,5.90
2023-02-16T12:36:08.352Z,7.30
2023-02-16T12:38:56.879Z,3.88
2023-02-16T12:41:27.246Z,5.53
2023-02-16T12:44:02.276Z,6.33
2023-02-16T12:46:37.620Z,5.90
2023-02-16T12:49:29.614Z,8.65
2023-02-16T12:52:18.455Z,6.07
2023-02-16T12:54:47.662Z,7.93
2023-02-16T12:57:18.804Z,8.85
2023-02-16T13:00:18.928Z,6.53
2023-02-16T13:02:56.851Z,6.95
2023-02-16T13:05:35.145Z,7.10
2023-02-16T13:08:22.167Z,5.22
2023-02-16T13:11:03.405Z,6.93
2023-02-16T13:13:34.689Z,8.40
2023-02-16T13:16:30.224Z,7.10
2023-02-16T13:18:58.862Z,7.35
2023-02-16T13:21:52.147Z,4.90
2023-02-16T13:24:50.641Z,9.50
2023-02-16T13:27:42.594Z,7.20
2023-02-16T13:30:28.223Z,9.52
2023-02-16T13:33:08.221Z,21.88
2023-02-16T13:35:53.097Z,17.58
2023-02-16T13:38:57.537Z,6.90
2023-02-16T13:41:34.483Z,5.13
2023-02-16T13:44:40.176Z,54.67
2023-02-16T13:47:11.777Z,14.52
2023-02-16T13:49:43.312Z,10.73
2023-02-16T13:52:36.464Z,6.78
2023-02-16T13:55:43.254Z,11.15
2023-02-16T13:58:14.055Z,7.13
2023-02-16T14:00:48.731Z,6.90
2023-02-16T14:03:20.185Z,14.68
2023-02-16T14:08:24.381Z,15.13
2023-02-16T14:10:53.285Z,11.85
2023-02-16T14:13:26.163Z,6.97
2023-02-16T14:15:56.801Z,11.40
2023-02-16T14:18:57.474Z,11.27
2023-02-16T14:21:49.175Z,7.95
2023-02-16T14:27:02.130Z,12.65
2023-02-16T14:29:32.495Z,15.13
2023-02-16T14:32:20.893Z,15.50
2023-02-16T14:35:06.484Z,11.63
2023-02-16T14:38:20.176Z,13.50
2023-02-16T14:41:00.046Z,24.50
2023-02-16T14:43:33.617Z,15.18
2023-02-16T14:46:29.810Z,15.50
2023-02-16T14:49:13.141Z,15.48
2023-02-16T14:52:00.643Z,15.43
2023-02-16T14:54:55.323Z,9.85
2023-02-16T14:57:59.768Z,8.90
2023-02-16T15:00:34.591Z,15.88
2023-02-16T15:03:15.307Z,16.60
2023-02-16T15:05:43.517Z,14.45
2023-02-16T15:08:34.445Z,14.32
2023-02-16T15:11:13.047Z,17.40
2023-02-16T15:13:40.645Z,17.98
2023-02-16T15:16:13.871Z,18.13
2023-02-16T15:18:46.784Z,25.10
2023-02-16T15:21:30.803Z,29.05
2023-02-16T15:24:00.801Z,26.27
2023-02-16T15:26:34.295Z,30.33
2023-02-16T15:29:14.334Z,28.65
2023-02-16T15:31:41.419Z,32.10
2023-02-16T15:34:14.373Z,35.75
2023-02-16T15:36:44.651Z,33.45
2023-02-16T15:39:28.169Z,30.85
2023-02-16T15:42:22.001Z,36.95
2023-02-16T15:44:49.201Z,56.97
2023-02-16T15:47:25.738Z,38.65
2023-02-16T15:49:54.239Z,26.05
2023-02-16T15:52:34.802Z,21.20
2023-02-16T15:55:04.733Z,21.33
2023-02-16T15:57:38.447Z,23.52
2023-02-16T16:00:15.907Z,30.73
2023-02-16T16:02:48.809Z,42.42
2023-02-16T16:05:25.534Z,43.08
2023-02-16T16:07:53.942Z,84.10
2023-02-16T16:10:28.630Z,83.78
2023-02-16T16:13:02.786Z,79.45
2023-02-16T16:15:40.822Z,33.00
2023-02-16T16:18:43.502Z,30.10
2023-02-16T16:21:29.286Z,34.72
2023-02-16T16:24:11.881Z,41.22
2023-02-16T16:26:55.800Z,54.10
2023-02-16T16:29:34.674Z,119.40
2023-02-16T16:32:02.542Z,152.35
2023-02-16T16:34:38.995Z,156.43
2023-02-16T16:37:18.082Z,122.40
2023-02-16T16:40:02.782Z,74.88
2023-02-16T16:42:31.592Z,71.07
2023-02-16T16:45:00.016Z,79.72
2023-02-16T16:47:31.668Z,77.35
2023-02-16T16:50:05.637Z,115.53
2023-02-16T16:52:34.623Z,74.93
2023-02-16T16:55:15.497Z,72.90
2023-02-16T16:57:42.766Z,87.07
2023-02-16T17:00:11.342Z,87.68
2023-02-16T17:02:39.349Z,118.80
2023-02-16T17:05:06.677Z,117.35
2023-02-16T17:07:33.695Z,99.10
2023-02-16T17:10:00.569Z,99.38
2023-02-16T17:12:28.517Z,79.50
2023-02-16T17:14:56.213Z,76.03
2023-02-16T17:17:23.307Z,64.07
2023-02-16T17:19:50.140Z,57.67
2023-02-16T17:22:19.517Z,55.30
2023-02-16T17:24:46.712Z,57.60
2023-02-16T17:27:14.291Z,69.32
2023-02-16T17:29:43.150Z,59.40
2023-02-16T17:32:10.487Z,53.17
2023-02-16T17:34:37.328Z,68.63
2023-02-16T17:37:09.004Z,66.32
2023-02-16T17:39:36.672Z,57.97
2023-02-16T17:42:03.665Z,49.33
2023-02-16T17:44:30.560Z,82.82
2023-02-16T17:46:57.430Z,54.30
2023-02-16T17:49:24.553Z,54.70
2023-02-16T17:51:51.520Z,55.75
2023-02-16T17:54:18.776Z,49.28
2023-02-16T17:56:47.045Z,38.28
2023-02-16T17:59:17.730Z,38.40
2023-02-16T18:01:45.572Z,42.90
2023-02-16T18:04:12.431Z,48.08
2023-02-16T18:06:40.080Z,45.90
2023-02-16T18:09:07.873Z,63.30
2023-02-16T18:11:35.264Z,65.80
2023-02-16T18:14:02.214Z,61.88
2023-02-16T18:16:32.082Z,37.85
2023-02-16T18:19:03.397Z,31.77
2023-02-16T18:21:30.699Z,31.15
2023-02-16T18:23:57.490Z,29.67
2023-02-16T18:26:24.750Z,28.33
2023-02-16T18:28:51.673Z,29.48
2023-02-16T18:31:18.938Z,30.10
2023-02-16T18:33:46.799Z,38.83
2023-02-16T18:36:13.701Z,42.35
2023-02-16T18:38:40.585Z,51.17
2023-02-16T18:41:08.379Z,56.67
2023-02-16T18:43:38.763Z,49.72
2023-02-16T18:46:12.691Z,51.17
2023-02-16T18:48:39.933Z,33.30
2023-02-16T18:51:08.500Z,33.85
2023-02-16T18:53:39.024Z,29.15
2023-02-16T18:56:07.390Z,19.73
2023-02-16T18:58:35.118Z,27.05
2023-02-16T19:01:25.585Z,28.73
2023-02-16T19:03:52.597Z,25.52
2023-02-16T19:06:19.466Z,36.70
2023-02-16T19:08:46.547Z,39.17
2023-02-16T19:11:13.684Z,32.08
2023-02-16T19:13:40.738Z,34.10
2023-02-16T19:16:07.997Z,40.33
2023-02-16T19:18:35.670Z,27.77
2023-02-16T19:21:10.875Z,26.48
2023-02-16T19:23:38.088Z,35.55
2023-02-16T19:26:11.221Z,28.73
2023-02-16T19:28:39.854Z,27.77
2023-02-16T19:31:09.661Z,26.88
2023-02-16T19:33:36.680Z,32.38
2023-02-16T19:36:05.845Z,31.45
2023-02-16T19:38:33.291Z,36.60
2023-02-16T19:41:00.578Z,43.03
2023-02-16T19:43:27.802Z,49.40
2023-02-16T19:45:54.764Z,63.28
2023-02-16T19:48:21.669Z,89.32
2023-02-16T19:50:48.740Z,84.00
2023-02-16T19:53:15.829Z,57.13
2023-02-16T19:55:42.981Z,43.35
2023-02-16T19:58:10.590Z,41.00
2023-02-16T20:00:38.087Z,35.28
2023-02-16T20:03:06.044Z,34.67
2023-02-16T20:05:33.757Z,36.20
2023-02-16T20:08:00.823Z,31.23
2023-02-16T20:10:29.569Z,28.60
2023-02-16T20:13:01.842Z,42.05
2023-02-16T20:15:29.272Z,40.92
2023-02-16T20:17:56.237Z,41.35
2023-02-16T20:20:24.040Z,39.63
2023-02-16T20:22:50.991Z,42.65
2023-02-16T20:25:19.144Z,44.22
2023-02-16T20:27:45.950Z,53.95
2023-02-16T20:30:21.673Z,54.58
2023-02-16T20:32:49.146Z,52.05
2023-02-16T20:35:16.692Z,44.22
2023-02-16T20:37:43.860Z,36.70
2023-02-16T20:40:11.184Z,35.67
2023-02-16T20:42:38.214Z,31.10
2023-02-16T20:45:05.393Z,35.25
2023-02-16T20:47:32.223Z,34.72
2023-02-16T20:49:59.149Z,43.55
2023-02-16T20:52:26.463Z,42.42
2023-02-16T20:54:53.250Z,44.00
2023-02-16T20:57:26.836Z,52.05
2023-02-16T20:59:55.291Z,53.97
2023-02-16T21:02:22.452Z,44.35
2023-02-16T21:04:49.520Z,39.70
2023-02-16T21:07:16.343Z,36.38
2023-02-16T21:09:44.255Z,34.10
2023-02-16T21:12:11.117Z,37.25
2023-02-16T21:14:38.293Z,38.25
2023-02-16T21:17:05.251Z,30.83
2023-02-16T21:19:32.207Z,27.65
2023-02-16T21:21:59.175Z,30.13
2023-02-16T21:24:26.218Z,29.92
2023-02-16T21:26:53.036Z,34.33
2023-02-16T21:29:20.046Z,39.28
2023-02-16T21:31:47.004Z,38.42
2023-02-16T21:34:14.059Z,38.88
2023-02-16T21:36:41.222Z,40.15
2023-02-16T21:39:08.125Z,44.60
2023-02-16T21:41:35.256Z,46.95
2023-02-16T21:44:06.950Z,42.63
2023-02-16T21:46:37.574Z,38.63
2023-02-16T21:49:06.775Z,32.50
2023-02-16T21:51:35.881Z,35.17
2023-02-16T21:54:05.879Z,33.20
2023-02-16T21:56:48.642Z,33.45
2023-02-16T21:59:17.856Z,33.42
2023-02-16T22:01:53.077Z,33.45
2023-02-16T22:04:22.521Z,32.35
2023-02-16T22:06:50.831Z,33.42
2023-02-16T22:09:20.059Z,34.88
2023-02-16T22:11:47.884Z,38.20
2023-02-16T22:14:15.533Z,38.70
2023-02-16T22:16:45.586Z,36.95
2023-02-16T22:19:14.906Z,38.80
2023-02-16T22:21:43.778Z,41.08
2023-02-16T22:24:12.962Z,42.88
2023-02-16T22:26:40.109Z,44.72
2023-02-16T22:29:07.647Z,44.10
2023-02-16T22:31:35.752Z,42.40
2023-02-16T22:34:08.612Z,42.25
2023-02-16T22:36:37.540Z,42.47
2023-02-16T22:39:05.194Z,46.53
2023-02-16T22:41:34.758Z,45.08
2023-02-16T22:44:01.616Z,44.45
2023-02-16T22:46:30.377Z,46.33
2023-02-16T22:48:58.823Z,49.67
2023-02-16T22:51:29.055Z,51.75
2023-02-16T22:53:59.871Z,56.58
2023-02-16T22:56:27.139Z,57.38
2023-02-16T22:58:57.490Z,54.95
2023-02-16T23:01:26.872Z,56.15
2023-02-16T23:03:57.438Z,56.70
2023-02-16T23:06:30.827Z,47.80
2023-02-16T23:09:00.438Z,42.28
2023-02-16T23:11:28.306Z,34.47
2023-02-16T23:13:55.711Z,36.22
2023-02-16T23:16:25.014Z,31.27
2023-02-16T23:18:52.530Z,33.88
2023-02-16T23:21:23.969Z,35.53
2023-02-16T23:23:52.033Z,35.22
2023-02-16T23:26:21.747Z,39.13
2023-02-16T23:28:56.122Z,41.00
2023-02-16T23:31:23.665Z,38.28
2023-02-16T23:33:51.658Z,38.42
2023-02-16T23:36:18.585Z,32.80
2023-02-16T23:38:45.597Z,33.72
2023-02-16T23:41:14.040Z,32.85
2023-02-16T23:43:41.271Z,37.50
2023-02-16T23:46:09.493Z,37.58
2023-02-16T23:48:36.673Z,41.28
2023-02-16T23:51:03.632Z,44.63
2023-02-16T23:53:30.692Z,42.80
2023-02-16T23:56:16.235Z,42.88
2023-02-16T23:58:45.637Z,37.58
